createdAt,value
2018-12-21T00:01:14.669Z,6.94
2018-12-21T00:03:43.169Z,6.92
2018-12-21T00:06:11.655Z,6.91
2018-12-21T00:08:40.270Z,6.97
2018-12-21T00:11:08.960Z,6.97
2018-12-21T00:13:37.401Z,6.91
2018-12-21T00:16:05.945Z,6.91
2018-12-21T00:18:34.482Z,7.01
2018-12-21T00:21:03.692Z,7.04
2018-12-21T00:23:34.579Z,6.98
2018-12-21T00:26:03.094Z,6.99
2018-12-21T00:28:31.513Z,7.01
2018-12-21T00:31:06.481Z,6.95
2018-12-21T00:33:40.915Z,6.76
2018-12-21T00:36:15.656Z,6.78
2018-12-21T00:38:49.568Z,6.85
2018-12-21T00:41:17.226Z,6.78
2018-12-21T00:43:51.797Z,6.78
2018-12-21T00:46:32.550Z,6.77
2018-12-21T00:49:01.185Z,6.67
2018-12-21T00:51:30.596Z,6.71
2018-12-21T00:54:04.539Z,6.64
2018-12-21T00:56:45.049Z,6.58
2018-12-21T00:59:13.522Z,6.82
2018-12-21T01:01:42.660Z,6.78
2018-12-21T01:04:11.271Z,6.66
2018-12-21T01:06:40.833Z,6.89
2018-12-21T01:09:10.056Z,6.79
2018-12-21T01:11:38.518Z,6.77
2018-12-21T01:14:07.023Z,6.80
2018-12-21T01:16:35.614Z,6.81
2018-12-21T01:19:04.086Z,6.86
2018-12-21T01:21:38.727Z,6.91
2018-12-21T01:24:03.984Z,7.00
2018-12-21T01:26:32.669Z,6.93
2018-12-21T01:29:01.222Z,6.89
2018-12-21T01:31:29.862Z,6.93
2018-12-21T01:33:58.359Z,6.97
2018-12-21T01:36:26.905Z,7.03
2018-12-21T01:38:56.130Z,6.92
2018-12-21T01:41:24.874Z,7.09
2018-12-21T01:43:54.033Z,7.06
2018-12-21T01:46:22.565Z,7.05
2018-12-21T01:48:51.080Z,6.93
2018-12-21T01:51:19.582Z,6.90
2018-12-21T01:53:49.048Z,7.16
2018-12-21T01:56:18.023Z,7.04
2018-12-21T01:58:47.667Z,7.00
2018-12-21T02:01:16.191Z,7.03
2018-12-21T02:03:44.739Z,6.96
2018-12-21T02:06:14.280Z,6.95
2018-12-21T02:08:42.883Z,6.98
2018-12-21T02:11:11.444Z,6.94
2018-12-21T02:13:40.089Z,7.03
2018-12-21T02:16:08.660Z,6.98
2018-12-21T02:18:37.175Z,7.11
2018-12-21T02:21:05.747Z,7.03
2018-12-21T02:23:34.865Z,6.95
2018-12-21T02:26:03.612Z,7.05
2018-12-21T02:28:32.096Z,6.87
2018-12-21T02:31:01.286Z,6.84
2018-12-21T02:33:29.807Z,6.90
2018-12-21T02:35:58.296Z,6.91
2018-12-21T02:38:26.807Z,6.71
2018-12-21T02:40:56.101Z,6.77
2018-12-21T02:43:24.597Z,6.86
2018-12-21T02:45:54.912Z,6.83
2018-12-21T02:48:23.447Z,6.77
2018-12-21T02:50:52.066Z,6.83
2018-12-21T02:53:20.651Z,6.86
2018-12-21T02:55:49.197Z,6.81
2018-12-21T02:58:17.756Z,6.92
2018-12-21T03:00:46.297Z,6.85
2018-12-21T03:03:15.554Z,6.99
2018-12-21T03:05:44.095Z,6.92
2018-12-21T03:08:12.941Z,6.95
2018-12-21T03:10:41.428Z,6.93
2018-12-21T03:13:10.985Z,6.93
2018-12-21T03:15:39.704Z,6.99
2018-12-21T03:18:08.357Z,7.03
2018-12-21T03:20:38.014Z,7.10
2018-12-21T03:23:06.547Z,7.03
2018-12-21T03:25:35.773Z,7.02
2018-12-21T03:28:04.260Z,7.13
2018-12-21T03:30:33.423Z,7.02
2018-12-21T03:33:02.095Z,6.98
2018-12-21T03:35:30.978Z,7.06
2018-12-21T03:37:59.530Z,7.07
2018-12-21T03:40:28.130Z,7.08
2018-12-21T03:42:56.770Z,7.09
2018-12-21T03:45:25.265Z,7.05
2018-12-21T03:47:55.327Z,7.11
2018-12-21T03:50:23.980Z,7.10
2018-12-21T03:52:52.444Z,7.27
2018-12-21T03:55:20.984Z,7.26
2018-12-21T03:57:49.553Z,7.17
2018-12-21T04:00:20.045Z,7.25
2018-12-21T04:02:50.202Z,7.24
2018-12-21T04:05:18.815Z,7.26
2018-12-21T04:07:48.720Z,7.33
2018-12-21T04:10:17.946Z,7.19
2018-12-21T04:12:46.506Z,7.27
2018-12-21T04:15:14.948Z,7.30
2018-12-21T04:17:43.452Z,7.30
2018-12-21T04:20:12.658Z,7.24
2018-12-21T04:22:41.176Z,7.14
2018-12-21T04:25:09.966Z,7.08
2018-12-21T04:27:39.478Z,7.18
2018-12-21T04:30:09.303Z,7.22
2018-12-21T04:32:37.934Z,7.23
2018-12-21T04:35:06.429Z,7.18
2018-12-21T04:37:35.337Z,7.25
2018-12-21T04:40:03.902Z,7.21
2018-12-21T04:42:32.478Z,7.26
2018-12-21T04:45:01.033Z,7.16
2018-12-21T04:47:29.506Z,7.14
2018-12-21T04:49:58.403Z,7.15
2018-12-21T04:52:26.973Z,6.98
2018-12-21T04:54:55.532Z,7.11
2018-12-21T04:57:24.909Z,7.11
2018-12-21T04:59:53.525Z,7.20
2018-12-21T05:02:22.017Z,7.11
2018-12-21T05:04:50.686Z,7.27
2018-12-21T05:07:19.891Z,7.34
2018-12-21T05:09:48.557Z,7.34
2018-12-21T05:12:17.039Z,7.20
2018-12-21T05:14:45.559Z,7.23
2018-12-21T05:17:14.816Z,7.17
2018-12-21T05:19:43.388Z,7.24
2018-12-21T05:22:13.902Z,7.28
2018-12-21T05:24:42.529Z,7.33
2018-12-21T05:27:11.016Z,7.28
2018-12-21T05:29:39.887Z,7.27
2018-12-21T05:32:08.732Z,7.38
2018-12-21T05:34:37.457Z,7.42
2018-12-21T05:37:05.966Z,7.44
2018-12-21T05:39:34.742Z,7.44
2018-12-21T05:42:03.699Z,7.44
2018-12-21T05:44:32.257Z,7.41
2018-12-21T05:47:00.723Z,7.55
2018-12-21T05:49:29.252Z,7.40
2018-12-21T05:51:57.730Z,7.42
2018-12-21T05:54:26.331Z,7.34
2018-12-21T05:56:54.929Z,7.46
2018-12-21T05:59:23.537Z,7.47
2018-12-21T06:01:52.032Z,7.46
2018-12-21T06:04:20.792Z,7.72
2018-12-21T06:06:49.407Z,7.71
2018-12-21T06:09:18.002Z,7.65
2018-12-21T06:11:46.440Z,7.77
2018-12-21T06:14:17.786Z,7.69
2018-12-21T06:16:47.031Z,7.65
2018-12-21T06:19:22.718Z,7.65
2018-12-21T06:22:00.811Z,7.56
2018-12-21T06:24:39.836Z,7.72
2018-12-21T06:27:09.977Z,7.79
2018-12-21T06:29:44.182Z,7.68
2018-12-21T06:32:14.125Z,7.74
2018-12-21T06:34:50.694Z,7.88
2018-12-21T06:37:19.834Z,7.92
2018-12-21T06:39:50.700Z,7.79
2018-12-21T06:42:20.024Z,7.89
2018-12-21T06:44:48.867Z,7.88
2018-12-21T06:47:17.372Z,7.86
2018-12-21T06:49:47.659Z,7.95
2018-12-21T06:52:16.875Z,8.02
2018-12-21T06:54:46.406Z,7.85
2018-12-21T06:57:16.546Z,7.81
2018-12-21T06:59:45.282Z,7.82
2018-12-21T07:02:13.914Z,7.86
2018-12-21T07:04:42.505Z,7.91
2018-12-21T07:07:11.350Z,7.82
2018-12-21T07:09:40.632Z,7.88
2018-12-21T07:12:09.688Z,7.90
2018-12-21T07:14:38.849Z,7.93
2018-12-21T07:17:08.078Z,7.99
2018-12-21T07:19:36.604Z,7.81
2018-12-21T07:22:05.163Z,7.79
2018-12-21T07:24:33.806Z,8.00
2018-12-21T07:27:02.534Z,7.89
2018-12-21T07:29:31.037Z,7.86
2018-12-21T07:32:00.167Z,7.83
2018-12-21T07:34:28.781Z,7.96
2018-12-21T07:36:57.271Z,7.83
2018-12-21T07:39:25.736Z,8.00
2018-12-21T07:41:54.257Z,7.91
2018-12-21T07:44:22.746Z,7.85
2018-12-21T07:46:51.166Z,7.76
2018-12-21T07:49:19.625Z,7.82
2018-12-21T07:51:48.211Z,7.92
2018-12-21T07:54:16.826Z,7.91
2018-12-21T07:56:45.311Z,7.97
2018-12-21T07:59:14.907Z,8.06
2018-12-21T08:01:43.392Z,7.97
2018-12-21T08:04:11.992Z,8.04
2018-12-21T08:06:41.760Z,7.96
2018-12-21T08:09:10.317Z,7.97
2018-12-21T08:11:38.776Z,8.07
2018-12-21T08:14:08.232Z,8.07
2018-12-21T08:16:36.780Z,8.01
2018-12-21T08:19:05.374Z,7.95
2018-12-21T08:21:33.904Z,8.04
2018-12-21T08:24:02.424Z,7.91
2018-12-21T08:26:30.896Z,8.12
2018-12-21T08:29:00.049Z,8.13
2018-12-21T08:31:28.640Z,8.06
2018-12-21T08:33:57.261Z,8.08
2018-12-21T08:36:25.844Z,8.15
2018-12-21T08:38:55.037Z,8.21
2018-12-21T08:41:23.545Z,8.26
2018-12-21T08:43:52.084Z,8.23
2018-12-21T08:46:21.603Z,8.15
2018-12-21T08:48:52.831Z,8.16
2018-12-21T08:51:21.509Z,8.17
2018-12-21T08:53:52.619Z,8.14
2018-12-21T08:56:20.734Z,8.18
2018-12-21T08:58:49.159Z,8.34
2018-12-21T09:01:17.661Z,8.21
2018-12-21T09:03:46.165Z,8.26
2018-12-21T09:06:18.555Z,8.33
2018-12-21T09:08:45.233Z,8.34
2018-12-21T09:11:13.831Z,8.34
2018-12-21T09:13:42.352Z,8.33
2018-12-21T09:16:11.444Z,8.28
2018-12-21T09:18:39.930Z,8.37
2018-12-21T09:21:08.500Z,8.40
2018-12-21T09:23:38.076Z,8.48
2018-12-21T09:26:06.635Z,8.47
2018-12-21T09:28:36.586Z,8.48
2018-12-21T09:31:05.121Z,8.48
2018-12-21T09:33:33.792Z,8.45
2018-12-21T09:36:02.324Z,8.53
2018-12-21T09:38:30.843Z,8.47
2018-12-21T09:40:59.391Z,8.44
2018-12-21T09:43:27.910Z,8.44
2018-12-21T09:45:56.503Z,8.48
2018-12-21T09:48:25.008Z,8.57
2018-12-21T09:50:55.154Z,8.60
2018-12-21T09:53:23.701Z,8.52
2018-12-21T09:55:52.280Z,8.76
2018-12-21T09:58:21.106Z,8.67
2018-12-21T10:00:49.769Z,8.69
2018-12-21T10:03:18.460Z,8.61
2018-12-21T10:05:47.036Z,8.69
2018-12-21T10:08:16.336Z,8.63
2018-12-21T10:10:44.943Z,8.59
2018-12-21T10:13:13.404Z,8.63
2018-12-21T10:15:41.974Z,8.69
2018-12-21T10:18:10.565Z,8.82
2018-12-21T10:20:39.747Z,8.85
2018-12-21T10:23:08.852Z,8.63
2018-12-21T10:25:38.402Z,8.78
2018-12-21T10:28:07.028Z,8.66
2018-12-21T10:30:36.818Z,8.69
2018-12-21T10:33:05.348Z,8.62
2018-12-21T10:35:34.003Z,8.53
2018-12-21T10:38:02.583Z,8.66
2018-12-21T10:40:31.086Z,8.54
2018-12-21T10:42:59.742Z,8.67
2018-12-21T10:45:28.815Z,8.63
2018-12-21T10:48:00.103Z,8.57
2018-12-21T10:50:29.029Z,8.77
2018-12-21T10:52:58.359Z,8.48
2018-12-21T10:55:27.024Z,8.66
2018-12-21T10:57:55.662Z,8.73
2018-12-21T11:00:24.303Z,8.80
2018-12-21T11:02:53.383Z,8.66
2018-12-21T11:05:23.565Z,8.79
2018-12-21T11:07:52.137Z,8.77
2018-12-21T11:10:20.749Z,8.68
2018-12-21T11:12:49.417Z,8.70
2018-12-21T11:15:18.316Z,8.77
2018-12-21T11:17:47.024Z,8.69
2018-12-21T11:20:17.603Z,8.62
2018-12-21T11:22:47.214Z,8.78
2018-12-21T11:25:16.284Z,8.79
2018-12-21T11:27:45.400Z,8.76
2018-12-21T11:30:14.013Z,8.83
2018-12-21T11:32:43.186Z,8.93
2018-12-21T11:35:11.715Z,8.95
2018-12-21T11:37:40.245Z,8.92
2018-12-21T11:40:08.710Z,8.93
2018-12-21T11:42:37.544Z,8.97
2018-12-21T11:45:08.092Z,8.90
2018-12-21T11:47:37.527Z,8.98
2018-12-21T11:50:08.180Z,8.94
2018-12-21T11:52:37.792Z,8.88
2018-12-21T11:55:07.132Z,8.96
2018-12-21T11:57:36.608Z,9.11
2018-12-21T12:00:05.998Z,9.07
2018-12-21T12:02:34.617Z,8.88
2018-12-21T12:05:03.234Z,8.98
2018-12-21T12:07:32.514Z,9.13
2018-12-21T12:10:01.020Z,8.98
2018-12-21T12:12:29.521Z,9.01
2018-12-21T12:14:58.028Z,9.10
2018-12-21T12:17:27.142Z,8.97
2018-12-21T12:19:56.224Z,9.06
2018-12-21T12:22:25.598Z,8.99
2018-12-21T12:24:55.449Z,8.96
2018-12-21T12:27:24.274Z,9.15
2018-12-21T12:29:52.805Z,9.02
2018-12-21T12:32:21.282Z,8.94
2018-12-21T12:34:50.549Z,8.92
2018-12-21T12:37:19.152Z,9.08
2018-12-21T12:39:47.681Z,9.17
2018-12-21T12:42:16.236Z,9.04
2018-12-21T12:44:45.311Z,9.10
2018-12-21T12:47:14.446Z,9.10
2018-12-21T12:49:42.947Z,9.19
2018-12-21T12:52:11.989Z,9.17
2018-12-21T12:54:40.527Z,9.15
2018-12-21T12:57:09.111Z,9.22
2018-12-21T12:59:37.662Z,9.13
2018-12-21T13:02:06.227Z,9.23
2018-12-21T13:07:18.430Z,9.17
2018-12-21T13:09:47.048Z,9.22
2018-12-21T13:12:15.658Z,9.26
2018-12-21T13:14:44.959Z,9.12
2018-12-21T13:17:13.676Z,9.17
2018-12-21T13:19:42.521Z,9.27
2018-12-21T13:22:11.260Z,9.30
2018-12-21T13:24:39.911Z,9.25
2018-12-21T13:27:09.036Z,9.37
2018-12-21T13:29:37.685Z,9.33
2018-12-21T13:32:07.889Z,9.32
2018-12-21T13:34:36.507Z,9.47
2018-12-21T13:37:05.125Z,9.48
2018-12-21T13:39:33.851Z,9.42
2018-12-21T13:42:03.425Z,9.35
2018-12-21T13:44:32.130Z,9.36
2018-12-21T13:47:00.634Z,9.40
2018-12-21T13:49:31.274Z,9.42
2018-12-21T13:51:59.931Z,9.38
2018-12-21T13:54:29.257Z,9.53
2018-12-21T13:56:57.821Z,9.36
2018-12-21T13:59:26.437Z,9.54
2018-12-21T14:01:55.117Z,9.45
2018-12-21T14:04:24.054Z,9.43
2018-12-21T14:06:52.494Z,9.47
2018-12-21T14:09:21.337Z,9.37
2018-12-21T14:11:49.829Z,9.42
2018-12-21T14:14:19.332Z,9.46
2018-12-21T14:16:48.014Z,9.50
2018-12-21T14:19:19.004Z,9.52
2018-12-21T14:21:48.226Z,9.60
2018-12-21T14:24:18.432Z,9.53
2018-12-21T14:26:47.227Z,9.58
2018-12-21T14:29:17.037Z,9.50
2018-12-21T14:31:45.786Z,9.61
2018-12-21T14:34:14.604Z,9.54
2018-12-21T14:36:43.344Z,9.59
2018-12-21T14:39:12.075Z,9.70
2018-12-21T14:41:41.349Z,9.78
2018-12-21T14:44:11.453Z,9.74
2018-12-21T14:46:40.647Z,9.87
2018-12-21T14:49:09.372Z,9.89
2018-12-21T14:51:38.159Z,10.02
2018-12-21T14:54:06.960Z,9.90
2018-12-21T14:56:37.563Z,10.00
2018-12-21T14:59:06.326Z,10.02
2018-12-21T15:01:35.022Z,9.95
2018-12-21T15:04:03.734Z,10.05
2018-12-21T15:06:32.307Z,10.15
2018-12-21T15:09:02.002Z,9.92
2018-12-21T15:11:31.352Z,9.91
2018-12-21T15:14:01.032Z,9.93
2018-12-21T15:16:29.806Z,9.90
2018-12-21T15:18:58.714Z,9.83
2018-12-21T15:21:27.587Z,9.82
2018-12-21T15:23:57.336Z,9.83
2018-12-21T15:26:26.429Z,9.91
2018-12-21T15:28:55.064Z,9.82
2018-12-21T15:31:24.542Z,9.89
2018-12-21T15:33:53.154Z,10.01
2018-12-21T15:36:21.864Z,9.93
2018-12-21T15:38:51.138Z,10.04
2018-12-21T15:41:19.709Z,10.15
2018-12-21T15:43:48.856Z,10.10
2018-12-21T15:46:17.566Z,10.19
2018-12-21T15:48:46.819Z,10.05
2018-12-21T15:51:15.504Z,10.14
2018-12-21T15:53:44.909Z,10.17
2018-12-21T15:56:13.781Z,10.11
2018-12-21T15:58:42.794Z,10.14
2018-12-21T16:01:11.484Z,10.15
2018-12-21T16:03:40.434Z,10.09
2018-12-21T16:06:09.054Z,10.15
2018-12-21T16:08:38.703Z,10.07
2018-12-21T16:11:07.344Z,10.20
2018-12-21T16:13:37.367Z,10.18
2018-12-21T16:16:05.929Z,10.20
2018-12-21T16:18:34.417Z,10.18
2018-12-21T16:21:03.089Z,10.37
2018-12-21T16:23:32.454Z,10.30
2018-12-21T16:26:14.890Z,10.30
2018-12-21T16:28:57.949Z,10.42
2018-12-21T16:31:38.595Z,10.43
2018-12-21T16:34:25.833Z,10.37
2018-12-21T16:37:10.527Z,10.40
2018-12-21T16:39:54.168Z,10.26
2018-12-21T16:42:39.527Z,10.41
2018-12-21T16:45:10.686Z,10.46
2018-12-21T16:47:39.358Z,10.42
2018-12-21T16:50:12.026Z,10.47
2018-12-21T16:52:40.603Z,10.49
2018-12-21T16:55:09.741Z,10.50
2018-12-21T16:57:40.083Z,10.56
2018-12-21T17:00:13.627Z,10.56
2018-12-21T17:02:42.213Z,10.62
2018-12-21T17:05:12.820Z,10.71
2018-12-21T17:07:42.340Z,10.60
2018-12-21T17:10:21.121Z,10.63
2018-12-21T17:12:49.857Z,10.65
2018-12-21T17:15:23.932Z,10.62
2018-12-21T17:17:53.523Z,10.64
2018-12-21T17:20:22.314Z,10.65
2018-12-21T17:22:51.049Z,10.57
2018-12-21T17:25:26.266Z,10.59
2018-12-21T17:28:03.377Z,10.51
2018-12-21T17:30:32.474Z,10.51
2018-12-21T17:33:01.640Z,10.60
2018-12-21T17:35:31.243Z,10.53
2018-12-21T17:37:59.725Z,10.58
2018-12-21T17:40:28.478Z,10.64
2018-12-21T17:42:57.825Z,10.65
2018-12-21T17:45:27.900Z,10.65
2018-12-21T17:48:01.145Z,10.67
2018-12-21T17:50:43.206Z,10.61
2018-12-21T17:53:11.847Z,10.65
2018-12-21T17:55:42.849Z,10.74
2018-12-21T17:58:14.204Z,10.71
2018-12-21T18:00:44.578Z,10.79
2018-12-21T18:03:24.519Z,10.63
2018-12-21T18:06:00.966Z,10.61
2018-12-21T18:08:30.295Z,10.67
2018-12-21T18:11:01.555Z,10.49
2018-12-21T18:13:32.721Z,10.51
2018-12-21T18:16:01.912Z,10.57
2018-12-21T18:18:31.701Z,10.52
2018-12-21T18:21:01.378Z,10.49
2018-12-21T18:23:31.946Z,10.38
2018-12-21T18:26:02.568Z,10.37
2018-12-21T18:28:31.669Z,10.31
2018-12-21T18:31:30.250Z,10.31
2018-12-21T18:34:09.850Z,10.39
2018-12-21T18:36:38.946Z,10.23
2018-12-21T18:39:07.799Z,10.32
2018-12-21T18:41:37.409Z,10.35
2018-12-21T18:44:06.992Z,10.32
2018-12-21T18:46:35.965Z,10.30
2018-12-21T18:49:05.259Z,10.41
2018-12-21T18:51:33.932Z,10.32
2018-12-21T18:54:02.478Z,10.22
2018-12-21T18:56:32.937Z,10.25
2018-12-21T18:59:01.420Z,10.18
2018-12-21T19:01:29.970Z,9.87
2018-12-21T19:03:58.547Z,10.11
2018-12-21T19:06:27.045Z,10.05
2018-12-21T19:08:56.131Z,10.16
2018-12-21T19:11:24.853Z,10.19
2018-12-21T19:13:53.398Z,10.20
2018-12-21T19:16:22.250Z,10.19
2018-12-21T19:18:50.874Z,10.30
2018-12-21T19:21:19.467Z,10.15
2018-12-21T19:23:47.991Z,10.25
2018-12-21T19:26:16.923Z,10.34
2018-12-21T19:28:45.579Z,10.22
2018-12-21T19:31:15.364Z,10.38
2018-12-21T19:33:43.983Z,10.33
2018-12-21T19:36:12.634Z,10.43
2018-12-21T19:38:41.571Z,10.33
2018-12-21T19:41:11.872Z,10.26
2018-12-21T19:43:40.616Z,10.29
2018-12-21T19:46:09.199Z,10.36
2018-12-21T19:48:37.687Z,10.40
2018-12-21T19:51:06.308Z,10.43
2018-12-21T19:53:34.823Z,10.45
2018-12-21T19:56:10.088Z,10.45
2018-12-21T19:58:39.125Z,10.44
2018-12-21T20:01:08.557Z,10.50
2018-12-21T20:03:37.153Z,10.48
2018-12-21T20:06:06.306Z,10.44
2018-12-21T20:08:34.900Z,10.49
2018-12-21T20:11:04.071Z,10.45
2018-12-21T20:13:34.497Z,10.39
2018-12-21T20:16:03.322Z,10.31
2018-12-21T20:18:31.883Z,10.29
2018-12-21T20:21:00.455Z,10.42
2018-12-21T20:23:30.000Z,10.28
2018-12-21T20:25:58.550Z,10.20
2018-12-21T20:28:27.044Z,10.21
2018-12-21T20:30:55.497Z,10.14
2018-12-21T20:33:24.042Z,10.17
2018-12-21T20:35:52.570Z,10.21
2018-12-21T20:38:21.492Z,10.31
2018-12-21T20:40:50.425Z,10.31
2018-12-21T20:43:20.243Z,10.33
2018-12-21T20:45:48.820Z,10.39
2018-12-21T20:48:17.321Z,10.38
2018-12-21T20:50:45.851Z,10.37
2018-12-21T20:53:15.001Z,10.43
2018-12-21T20:55:43.533Z,10.35
2018-12-21T20:58:25.069Z,10.39
2018-12-21T21:00:53.816Z,10.33
2018-12-21T21:03:22.499Z,10.28
2018-12-21T21:05:51.063Z,10.34
2018-12-21T21:08:19.506Z,10.34
2018-12-21T21:10:49.497Z,10.32
2018-12-21T21:13:19.662Z,10.19
2018-12-21T21:15:48.439Z,10.25
2018-12-21T21:18:19.677Z,10.24
2018-12-21T21:20:48.355Z,10.26
2018-12-21T21:23:17.084Z,10.26
2018-12-21T21:25:45.613Z,10.15
2018-12-21T21:28:14.215Z,10.35
2018-12-21T21:30:43.865Z,10.28
2018-12-21T21:33:13.250Z,10.25
2018-12-21T21:35:41.721Z,10.27
2018-12-21T21:38:11.049Z,10.31
2018-12-21T21:40:40.634Z,10.24
2018-12-21T21:43:12.142Z,10.28
2018-12-21T21:45:40.693Z,10.33
2018-12-21T21:48:09.261Z,10.42
2018-12-21T21:50:37.886Z,10.39
2018-12-21T21:53:06.463Z,10.31
2018-12-21T21:55:35.003Z,10.32
2018-12-21T21:58:04.733Z,10.42
2018-12-21T22:00:34.016Z,10.41
2018-12-21T22:03:02.468Z,10.36
2018-12-21T22:05:31.010Z,10.37
2018-12-21T22:07:59.557Z,10.46
2018-12-21T22:10:28.167Z,10.43
2018-12-21T22:12:56.766Z,10.43
2018-12-21T22:15:25.234Z,10.42
2018-12-21T22:17:53.745Z,10.44
2018-12-21T22:20:22.766Z,10.37
2018-12-21T22:22:51.841Z,10.36
2018-12-21T22:25:20.342Z,10.33
2018-12-21T22:27:49.461Z,10.23
2018-12-21T22:30:18.640Z,10.31
2018-12-21T22:32:47.188Z,10.39
2018-12-21T22:35:15.859Z,10.36
2018-12-21T22:37:45.157Z,10.36
2018-12-21T22:40:14.885Z,10.47
2018-12-21T22:42:44.025Z,10.37
2018-12-21T22:45:12.569Z,10.36
2018-12-21T22:47:41.442Z,10.38
2018-12-21T22:50:09.982Z,10.42
2018-12-21T22:52:39.285Z,10.52
2018-12-21T22:55:08.940Z,10.44
2018-12-21T22:57:37.514Z,10.40
2018-12-21T23:00:10.780Z,10.31
2018-12-21T23:02:39.446Z,10.28
2018-12-21T23:05:07.979Z,10.23
2018-12-21T23:07:36.674Z,10.24
2018-12-21T23:10:06.649Z,10.16
2018-12-21T23:12:35.189Z,10.24
2018-12-21T23:15:03.722Z,10.16
2018-12-21T23:17:32.202Z,10.07
2018-12-21T23:20:00.907Z,9.91
2018-12-21T23:22:29.468Z,10.10
2018-12-21T23:24:58.066Z,10.04
2018-12-21T23:27:26.711Z,10.05
2018-12-21T23:29:55.240Z,9.96
2018-12-21T23:32:23.761Z,9.92
2018-12-21T23:34:52.284Z,9.83
2018-12-21T23:37:21.357Z,9.84
2018-12-21T23:39:50.000Z,9.75
2018-12-21T23:42:18.575Z,9.83
2018-12-21T23:44:47.565Z,9.73
2018-12-21T23:47:16.098Z,10.00
2018-12-21T23:49:45.195Z,9.94
2018-12-21T23:52:13.757Z,9.87
2018-12-21T23:54:42.230Z,10.12
2018-12-21T23:57:11.246Z,10.07
2018-12-21T23:59:41.469Z,10.14
